createdAt,value
2023-10-18T00:01:58.719Z,7.50
2023-10-18T00:04:25.426Z,7.60
2023-10-18T00:06:55.275Z,7.30
2023-10-18T00:09:41.586Z,7.40
2023-10-18T00:12:08.785Z,6.60
2023-10-18T00:14:36.169Z,7.80
2023-10-18T00:17:02.884Z,7.00
2023-10-18T00:19:29.895Z,7.60
2023-10-18T00:21:56.793Z,7.00
2023-10-18T00:24:23.591Z,5.40
2023-10-18T00:26:52.025Z,6.80
2023-10-18T00:29:18.717Z,6.40
2023-10-18T00:31:45.321Z,6.30
2023-10-18T00:34:12.892Z,7.10
2023-10-18T00:36:40.843Z,6.60
2023-10-18T00:39:42.939Z,6.90
2023-10-18T00:42:28.773Z,5.90
2023-10-18T00:45:09.756Z,5.80
2023-10-18T00:47:36.613Z,6.60
2023-10-18T00:50:04.375Z,7.10
2023-10-18T00:52:31.233Z,7.30
2023-10-18T00:54:58.479Z,7.70
2023-10-18T00:57:35.774Z,7.00
2023-10-18T01:00:13.432Z,6.30
2023-10-18T01:02:44.709Z,6.70
2023-10-18T01:05:16.471Z,6.10
2023-10-18T01:07:43.900Z,6.50
2023-10-18T01:10:13.042Z,6.70
2023-10-18T01:12:39.840Z,6.80
2023-10-18T01:15:07.596Z,6.00
2023-10-18T01:17:36.811Z,6.90
2023-10-18T01:20:26.563Z,6.10
2023-10-18T01:22:53.200Z,6.20
2023-10-18T01:25:19.973Z,6.20
2023-10-18T01:27:46.757Z,6.60
2023-10-18T01:30:17.557Z,6.90
2023-10-18T01:32:44.810Z,6.50
2023-10-18T01:35:16.129Z,7.10
2023-10-18T01:37:44.104Z,5.70
2023-10-18T01:40:22.029Z,6.80
2023-10-18T01:42:58.763Z,6.50
2023-10-18T01:45:37.789Z,6.30
2023-10-18T01:48:10.830Z,6.50
2023-10-18T01:50:39.824Z,6.30
2023-10-18T01:53:16.279Z,6.90
2023-10-18T01:55:47.676Z,7.10
2023-10-18T01:58:14.580Z,5.50
2023-10-18T02:00:42.627Z,6.70
2023-10-18T02:03:13.311Z,6.40
2023-10-18T02:05:44.008Z,6.80
2023-10-18T02:08:12.203Z,6.10
2023-10-18T02:10:41.423Z,6.00
2023-10-18T02:13:14.419Z,6.40
2023-10-18T02:15:41.566Z,6.10
2023-10-18T02:18:09.358Z,6.00
2023-10-18T02:20:38.540Z,6.30
2023-10-18T02:23:11.672Z,6.20
2023-10-18T02:25:44.936Z,6.20
2023-10-18T02:28:27.852Z,6.40
2023-10-18T02:31:11.004Z,5.70
2023-10-18T02:33:37.681Z,6.70
2023-10-18T02:36:28.175Z,6.70
2023-10-18T02:38:55.150Z,6.40
2023-10-18T02:41:21.848Z,7.00
2023-10-18T02:43:51.752Z,6.50
2023-10-18T02:46:21.670Z,6.40
2023-10-18T02:48:50.934Z,6.90
2023-10-18T02:51:22.808Z,7.10
2023-10-18T02:53:51.893Z,7.10
2023-10-18T02:56:21.273Z,7.30
2023-10-18T02:58:48.650Z,7.60
2023-10-18T03:01:15.485Z,7.80
2023-10-18T03:03:47.193Z,8.60
2023-10-18T03:06:14.706Z,9.90
2023-10-18T03:08:49.810Z,10.10
2023-10-18T03:11:20.902Z,10.20
2023-10-18T03:13:51.873Z,11.20
2023-10-18T03:16:39.375Z,11.70
2023-10-18T03:19:13.128Z,11.40
2023-10-18T03:21:48.653Z,12.40
2023-10-18T03:24:15.450Z,10.60
2023-10-18T03:26:43.858Z,12.00
2023-10-18T03:29:13.174Z,12.30
2023-10-18T03:31:44.835Z,10.50
2023-10-18T03:34:23.087Z,9.90
2023-10-18T03:36:49.707Z,10.10
2023-10-18T03:39:16.428Z,10.20
2023-10-18T03:41:50.469Z,11.30
2023-10-18T03:44:32.969Z,12.80
2023-10-18T03:47:12.474Z,10.10
2023-10-18T03:49:39.371Z,9.80
2023-10-18T03:52:27.040Z,9.30
2023-10-18T03:54:56.532Z,9.00
2023-10-18T03:57:29.745Z,9.00
2023-10-18T03:59:59.208Z,8.50
2023-10-18T04:02:26.185Z,8.90
2023-10-18T04:04:58.934Z,8.00
2023-10-18T04:07:27.307Z,8.50
2023-10-18T04:09:54.604Z,7.00
2023-10-18T04:12:22.746Z,6.30
2023-10-18T04:14:53.120Z,8.30
2023-10-18T04:17:35.513Z,7.60
2023-10-18T04:20:12.905Z,6.50
2023-10-18T04:22:39.436Z,6.00
2023-10-18T04:25:14.894Z,7.40
2023-10-18T04:27:43.139Z,7.40
2023-10-18T04:30:12.976Z,6.70
2023-10-18T04:32:39.907Z,6.70
2023-10-18T04:35:11.177Z,6.70
2023-10-18T04:37:38.121Z,7.00
2023-10-18T04:40:07.219Z,6.40
2023-10-18T04:42:34.125Z,5.90
2023-10-18T04:45:16.766Z,6.80
2023-10-18T04:47:43.470Z,7.10
2023-10-18T04:50:12.836Z,7.40
2023-10-18T04:52:42.651Z,6.40
2023-10-18T04:55:15.255Z,5.80
2023-10-18T04:57:42.509Z,6.50
2023-10-18T05:00:35.230Z,6.00
2023-10-18T05:03:08.260Z,6.20
2023-10-18T05:05:44.974Z,6.00
2023-10-18T05:08:17.354Z,6.90
2023-10-18T05:10:47.262Z,6.40
2023-10-18T05:13:34.347Z,5.20
2023-10-18T05:16:02.382Z,6.40
2023-10-18T05:18:30.835Z,7.20
2023-10-18T05:20:58.835Z,6.20
2023-10-18T05:23:33.367Z,7.10
2023-10-18T05:26:09.501Z,6.40
2023-10-18T05:29:01.660Z,7.70
2023-10-18T05:31:47.090Z,7.00
2023-10-18T05:34:17.005Z,6.30
2023-10-18T05:36:46.492Z,7.70
2023-10-18T05:39:26.156Z,6.60
2023-10-18T05:42:00.601Z,9.50
2023-10-18T05:44:30.145Z,6.50
2023-10-18T05:46:57.824Z,7.20
2023-10-18T05:49:26.723Z,8.30
2023-10-18T05:52:15.389Z,8.80
2023-10-18T05:54:44.341Z,10.40
2023-10-18T05:57:16.566Z,8.00
2023-10-18T05:59:46.684Z,10.80
2023-10-18T06:02:23.655Z,9.60
2023-10-18T06:04:52.375Z,8.90
2023-10-18T06:07:23.720Z,9.10
2023-10-18T06:09:56.424Z,9.90
2023-10-18T06:12:24.193Z,8.40
2023-10-18T06:14:54.435Z,9.00
2023-10-18T06:17:27.425Z,7.50
2023-10-18T06:19:57.281Z,10.20
2023-10-18T06:22:29.950Z,10.20
2023-10-18T06:25:01.429Z,10.60
2023-10-18T06:27:30.505Z,9.10
2023-10-18T06:29:56.981Z,9.30
2023-10-18T06:32:25.676Z,10.10
2023-10-18T06:34:58.226Z,9.60
2023-10-18T06:37:25.500Z,9.40
2023-10-18T06:39:58.976Z,8.90
2023-10-18T06:42:27.636Z,10.00
2023-10-18T06:44:56.083Z,9.20
2023-10-18T06:47:31.430Z,9.30
2023-10-18T06:50:11.741Z,9.30
2023-10-18T06:52:53.218Z,8.20
2023-10-18T06:55:22.060Z,8.60
2023-10-18T06:57:50.466Z,8.20
2023-10-18T07:00:17.267Z,9.00
2023-10-18T07:02:45.260Z,8.60
2023-10-18T07:05:16.828Z,8.30
2023-10-18T07:07:43.393Z,8.40
2023-10-18T07:10:20.755Z,8.10
2023-10-18T07:12:53.004Z,7.40
2023-10-18T07:15:23.609Z,7.90
2023-10-18T07:17:52.713Z,7.10
2023-10-18T07:20:21.807Z,7.10
2023-10-18T07:22:55.336Z,7.00
2023-10-18T07:25:29.743Z,6.90
2023-10-18T07:27:57.318Z,6.10
2023-10-18T07:30:39.314Z,5.60
2023-10-18T07:33:12.796Z,5.60
2023-10-18T07:35:44.897Z,4.80
2023-10-18T07:38:11.835Z,5.20
2023-10-18T07:40:44.787Z,4.20
2023-10-18T07:43:15.585Z,4.20
2023-10-18T07:45:47.625Z,4.90
2023-10-18T07:48:17.427Z,4.30
2023-10-18T07:50:45.608Z,3.80
2023-10-18T07:53:12.273Z,3.60
2023-10-18T07:55:43.093Z,2.90
2023-10-18T07:58:22.801Z,3.00
2023-10-18T08:01:11.142Z,2.70
2023-10-18T08:03:39.084Z,2.70
2023-10-18T08:06:09.225Z,3.40
2023-10-18T08:08:42.479Z,2.70
2023-10-18T08:11:12.718Z,2.70
2023-10-18T08:13:48.423Z,2.80
2023-10-18T08:16:21.220Z,2.60
2023-10-18T08:18:53.710Z,2.80
2023-10-18T08:21:26.981Z,2.10
2023-10-18T08:23:57.851Z,2.40
2023-10-18T08:26:27.445Z,2.10
2023-10-18T08:28:54.460Z,2.00
2023-10-18T08:31:35.220Z,1.50
2023-10-18T08:34:06.506Z,1.90
2023-10-18T08:36:33.445Z,1.30
2023-10-18T08:39:02.235Z,2.10
2023-10-18T08:41:33.890Z,1.90
2023-10-18T08:44:16.756Z,2.10
2023-10-18T08:46:52.911Z,2.00
2023-10-18T08:49:23.106Z,1.60
2023-10-18T08:52:11.954Z,1.00
2023-10-18T08:54:43.159Z,1.60
2023-10-18T08:57:11.738Z,1.80
2023-10-18T08:59:52.484Z,1.90
2023-10-18T09:02:22.302Z,2.50
2023-10-18T09:04:56.594Z,2.60
2023-10-18T09:07:43.268Z,2.10
2023-10-18T09:10:33.861Z,1.70
2023-10-18T09:13:12.160Z,1.30
2023-10-18T09:15:59.588Z,1.20
2023-10-18T09:18:31.752Z,4.50
2023-10-18T09:21:08.018Z,0.90
2023-10-18T09:23:35.236Z,1.10
2023-10-18T09:26:14.904Z,1.70
2023-10-18T09:28:42.372Z,1.00
2023-10-18T09:31:18.557Z,1.00
2023-10-18T09:33:50.919Z,0.60
2023-10-18T09:36:26.202Z,0.80
2023-10-18T09:38:54.874Z,1.00
2023-10-18T09:41:21.876Z,1.30
2023-10-18T09:43:50.426Z,0.90
2023-10-18T09:46:17.459Z,0.50
2023-10-18T09:48:46.601Z,0.60
2023-10-18T09:51:15.738Z,0.50
2023-10-18T09:53:44.225Z,0.40
2023-10-18T09:56:13.535Z,0.60
2023-10-18T09:58:51.589Z,0.60
2023-10-18T10:01:31.937Z,0.40
2023-10-18T10:04:06.869Z,0.50
2023-10-18T10:06:36.101Z,0.30
2023-10-18T10:09:12.034Z,0.30
2023-10-18T10:11:46.713Z,0.30
2023-10-18T10:14:22.029Z,0.40
2023-10-18T10:17:06.326Z,0.40
2023-10-18T10:19:44.043Z,0.40
2023-10-18T10:22:40.984Z,0.50
2023-10-18T10:25:28.358Z,0.40
2023-10-18T10:28:15.282Z,0.30
2023-10-18T10:30:45.076Z,0.80
2023-10-18T10:33:14.667Z,0.40
2023-10-18T10:35:45.910Z,0.60
2023-10-18T10:38:20.037Z,0.40
2023-10-18T10:41:11.855Z,0.50
2023-10-18T10:44:07.267Z,0.60
2023-10-18T10:46:40.548Z,0.80
2023-10-18T10:49:45.564Z,1.30
2023-10-18T10:52:19.241Z,1.90
2023-10-18T10:54:53.950Z,1.80
2023-10-18T10:57:22.414Z,0.80
2023-10-18T10:59:52.842Z,0.50
2023-10-18T11:02:30.558Z,0.90
2023-10-18T11:04:59.962Z,0.80
2023-10-18T11:07:28.510Z,0.70
2023-10-18T11:10:07.055Z,0.40
2023-10-18T11:12:33.974Z,1.60
2023-10-18T11:15:02.089Z,1.00
2023-10-18T11:17:30.044Z,0.60
2023-10-18T11:20:11.285Z,0.70
2023-10-18T11:22:42.057Z,0.70
2023-10-18T11:25:14.412Z,0.80
2023-10-18T11:27:41.224Z,0.80
2023-10-18T11:30:17.751Z,0.60
2023-10-18T11:32:47.393Z,0.70
2023-10-18T11:35:19.790Z,1.20
2023-10-18T11:37:48.327Z,1.10
2023-10-18T11:40:22.492Z,1.30
2023-10-18T11:43:05.485Z,0.90
2023-10-18T11:45:37.463Z,0.80
2023-10-18T11:48:10.327Z,1.90
2023-10-18T11:50:46.033Z,0.90
2023-10-18T11:53:14.624Z,0.90
2023-10-18T11:55:56.870Z,0.60
2023-10-18T11:58:24.585Z,0.70
2023-10-18T12:00:56.661Z,1.00
2023-10-18T12:03:24.244Z,1.00
2023-10-18T12:05:50.942Z,0.80
2023-10-18T12:08:18.277Z,0.80
2023-10-18T12:10:45.218Z,0.80
2023-10-18T12:13:14.362Z,1.20
2023-10-18T12:15:41.097Z,0.60
2023-10-18T12:18:10.129Z,0.80
2023-10-18T12:20:46.068Z,0.90
2023-10-18T12:23:16.639Z,0.70
2023-10-18T12:25:44.311Z,0.60
2023-10-18T12:28:18.475Z,1.00
2023-10-18T12:30:53.129Z,0.70
2023-10-18T12:33:24.421Z,1.20
2023-10-18T12:35:52.614Z,0.90
2023-10-18T12:38:32.313Z,0.90
2023-10-18T12:41:01.606Z,1.30
2023-10-18T12:43:32.853Z,1.00
2023-10-18T12:46:04.436Z,2.40
2023-10-18T12:48:32.052Z,1.20
2023-10-18T12:51:03.955Z,1.30
2023-10-18T12:53:30.523Z,2.00
2023-10-18T12:56:17.877Z,1.20
2023-10-18T12:59:11.717Z,1.10
2023-10-18T13:01:39.022Z,1.60
2023-10-18T13:04:09.052Z,1.20
2023-10-18T13:06:36.187Z,1.40
2023-10-18T13:09:15.717Z,1.40
2023-10-18T13:11:53.146Z,1.40
2023-10-18T13:14:25.137Z,1.20
2023-10-18T13:16:56.753Z,1.80
2023-10-18T13:19:28.466Z,1.00
2023-10-18T13:21:55.943Z,1.60
2023-10-18T13:24:22.894Z,2.00
2023-10-18T13:26:55.127Z,1.80
2023-10-18T13:29:22.261Z,1.30
2023-10-18T13:31:51.390Z,1.10
2023-10-18T13:34:22.211Z,1.20
2023-10-18T13:36:50.630Z,1.50
2023-10-18T13:39:18.677Z,1.00
2023-10-18T13:41:52.783Z,0.70
2023-10-18T13:44:22.967Z,0.90
2023-10-18T13:47:12.174Z,1.20
2023-10-18T13:49:42.373Z,0.70
2023-10-18T13:52:09.440Z,1.60
2023-10-18T13:54:37.128Z,0.70
2023-10-18T13:57:05.266Z,1.30
2023-10-18T13:59:34.289Z,1.10
2023-10-18T14:02:01.261Z,1.20
2023-10-18T14:04:29.528Z,0.70
2023-10-18T14:06:58.456Z,1.20
2023-10-18T14:09:25.493Z,1.20
2023-10-18T14:11:52.559Z,1.50
2023-10-18T14:14:20.515Z,1.20
2023-10-18T14:16:47.284Z,1.60
2023-10-18T14:19:19.361Z,0.90
2023-10-18T14:21:48.882Z,0.90
2023-10-18T14:24:17.945Z,1.30
2023-10-18T14:26:44.985Z,1.10
2023-10-18T14:29:12.362Z,1.20
2023-10-18T14:31:39.286Z,1.00
2023-10-18T14:34:06.083Z,0.90
2023-10-18T14:36:50.976Z,1.20
2023-10-18T14:39:35.727Z,1.40
2023-10-18T14:42:07.481Z,1.20
2023-10-18T14:44:34.207Z,1.20
2023-10-18T14:47:00.866Z,1.10
2023-10-18T14:49:28.882Z,1.20
2023-10-18T14:51:55.516Z,1.40
2023-10-18T14:54:22.349Z,1.40
2023-10-18T14:56:50.444Z,1.00
2023-10-18T14:59:17.125Z,1.60
2023-10-18T15:01:43.720Z,1.70
2023-10-18T15:04:10.289Z,1.80
2023-10-18T15:06:38.011Z,1.60
2023-10-18T15:09:04.758Z,1.50
2023-10-18T15:11:31.496Z,2.10
2023-10-18T15:13:59.305Z,2.60
2023-10-18T15:16:26.124Z,2.70
2023-10-18T15:18:52.793Z,3.90
2023-10-18T15:21:19.496Z,3.30
2023-10-18T15:23:46.294Z,3.50
2023-10-18T15:26:26.088Z,3.70
2023-10-18T15:28:52.835Z,4.40
2023-10-18T15:31:20.584Z,4.40
2023-10-18T15:33:47.244Z,3.90
2023-10-18T15:36:22.602Z,3.50
2023-10-18T15:38:51.198Z,3.90
2023-10-18T15:41:21.825Z,4.20
2023-10-18T15:43:55.165Z,3.60
2023-10-18T15:46:25.954Z,3.70
2023-10-18T15:48:53.986Z,4.30
2023-10-18T15:51:22.798Z,5.20
2023-10-18T15:53:57.122Z,6.60
2023-10-18T15:56:26.285Z,10.40
2023-10-18T15:58:56.258Z,11.90
2023-10-18T16:01:23.861Z,12.40
2023-10-18T16:03:51.962Z,16.90
2023-10-18T16:06:19.970Z,16.40
2023-10-18T16:08:47.596Z,15.20
2023-10-18T16:11:15.007Z,12.10
2023-10-18T16:13:41.944Z,10.90
2023-10-18T16:16:11.024Z,9.80
2023-10-18T16:18:39.935Z,10.50
2023-10-18T16:21:11.320Z,10.10
2023-10-18T16:23:40.604Z,10.80
2023-10-18T16:26:11.640Z,11.10
2023-10-18T16:28:39.164Z,12.00
2023-10-18T16:31:11.066Z,13.10
2023-10-18T16:33:40.867Z,12.30
2023-10-18T16:36:14.501Z,11.10
2023-10-18T16:38:41.704Z,10.50
2023-10-18T16:41:12.385Z,10.10
2023-10-18T16:43:39.363Z,10.30
2023-10-18T16:46:07.178Z,12.30
2023-10-18T16:48:35.700Z,12.50
2023-10-18T16:51:06.749Z,12.10
2023-10-18T16:53:38.310Z,12.50
2023-10-18T16:56:05.681Z,13.00
2023-10-18T16:58:32.871Z,12.60
2023-10-18T17:01:01.069Z,13.60
2023-10-18T17:03:30.664Z,14.30
2023-10-18T17:05:59.410Z,14.50
2023-10-18T17:08:27.147Z,15.80
2023-10-18T17:10:55.614Z,15.50
2023-10-18T17:13:26.901Z,15.90
2023-10-18T17:15:56.435Z,16.10
2023-10-18T17:18:23.945Z,15.60
2023-10-18T17:21:06.608Z,16.30
2023-10-18T17:23:43.190Z,15.30
2023-10-18T17:26:19.435Z,14.70
2023-10-18T17:28:50.370Z,15.00
2023-10-18T17:31:21.782Z,15.10
2023-10-18T17:33:53.349Z,15.20
2023-10-18T17:36:26.041Z,16.20
2023-10-18T17:38:52.860Z,15.30
2023-10-18T17:41:19.582Z,17.60
2023-10-18T17:43:47.600Z,17.80
2023-10-18T17:46:15.576Z,16.30
2023-10-18T17:48:42.312Z,16.40
2023-10-18T17:51:09.387Z,19.40
2023-10-18T17:53:37.114Z,19.10
2023-10-18T17:56:07.308Z,18.40
2023-10-18T17:58:42.115Z,23.30
2023-10-18T18:01:21.325Z,25.60
2023-10-18T18:03:50.208Z,24.70
2023-10-18T18:06:16.866Z,22.00
2023-10-18T18:08:43.637Z,21.40
2023-10-18T18:11:12.232Z,19.50
2023-10-18T18:13:42.690Z,19.60
2023-10-18T18:16:09.288Z,19.10
2023-10-18T18:18:35.941Z,17.10
2023-10-18T18:21:02.664Z,18.30
2023-10-18T18:23:29.436Z,17.70
2023-10-18T18:26:05.909Z,16.70
2023-10-18T18:28:33.510Z,17.20
2023-10-18T18:31:00.351Z,17.10
2023-10-18T18:33:28.209Z,17.10
2023-10-18T18:35:54.770Z,17.10
2023-10-18T18:38:21.629Z,17.10
2023-10-18T18:40:50.287Z,16.90
2023-10-18T18:43:17.342Z,17.30
2023-10-18T18:45:44.612Z,17.80
2023-10-18T18:48:14.666Z,17.20
2023-10-18T18:50:41.441Z,17.50
2023-10-18T18:53:08.181Z,16.80
2023-10-18T18:55:35.001Z,15.60
2023-10-18T18:58:01.701Z,16.50
2023-10-18T19:00:28.309Z,16.00
2023-10-18T19:02:57.109Z,16.40
2023-10-18T19:05:24.952Z,15.30
2023-10-18T19:07:55.267Z,15.20
2023-10-18T19:10:22.242Z,14.10
2023-10-18T19:12:51.552Z,15.30
2023-10-18T19:15:20.895Z,14.20
2023-10-18T19:17:50.058Z,14.30
2023-10-18T19:20:18.474Z,13.70
2023-10-18T19:22:50.099Z,14.30
2023-10-18T19:25:20.404Z,14.20
2023-10-18T19:27:49.097Z,13.60
2023-10-18T19:30:21.012Z,11.30
2023-10-18T19:32:48.756Z,11.80
2023-10-18T19:35:15.961Z,13.30
2023-10-18T19:37:43.714Z,12.10
2023-10-18T19:40:13.605Z,13.80
2023-10-18T19:42:42.049Z,13.70
2023-10-18T19:45:11.528Z,13.40
2023-10-18T19:47:38.498Z,13.80
2023-10-18T19:50:07.112Z,12.30
2023-10-18T19:52:33.696Z,13.30
2023-10-18T19:55:00.468Z,13.20
2023-10-18T19:57:27.233Z,12.80
2023-10-18T19:59:54.693Z,13.30
2023-10-18T20:02:21.462Z,13.30
2023-10-18T20:04:48.307Z,12.10
2023-10-18T20:07:18.053Z,12.80
2023-10-18T20:09:44.961Z,13.20
2023-10-18T20:12:12.204Z,12.80
2023-10-18T20:14:39.220Z,12.30
2023-10-18T20:17:06.054Z,13.00
2023-10-18T20:19:32.826Z,14.30
2023-10-18T20:21:59.580Z,13.60
2023-10-18T20:24:26.250Z,13.20
2023-10-18T20:26:52.895Z,12.80
2023-10-18T20:29:20.227Z,13.40
2023-10-18T20:31:47.186Z,11.70
2023-10-18T20:34:13.857Z,14.10
2023-10-18T20:36:40.881Z,13.50
2023-10-18T20:39:10.154Z,13.80
2023-10-18T20:41:40.208Z,13.80
2023-10-18T20:44:19.611Z,12.90
2023-10-18T20:46:50.888Z,12.00
2023-10-18T20:49:18.296Z,12.20
2023-10-18T20:51:57.560Z,12.00
2023-10-18T20:54:25.761Z,12.40
2023-10-18T20:57:10.850Z,13.10
2023-10-18T20:59:39.338Z,11.90
2023-10-18T21:02:15.278Z,11.40
2023-10-18T21:04:45.325Z,13.00
2023-10-18T21:07:12.420Z,13.00
2023-10-18T21:09:41.736Z,13.90
2023-10-18T21:12:08.360Z,14.60
2023-10-18T21:14:35.085Z,15.80
2023-10-18T21:17:01.693Z,17.30
2023-10-18T21:19:28.720Z,13.60
2023-10-18T21:21:55.751Z,17.50
2023-10-18T21:24:22.644Z,17.60
2023-10-18T21:26:49.504Z,20.40
2023-10-18T21:29:16.462Z,20.30
2023-10-18T21:31:43.924Z,21.10
2023-10-18T21:34:10.852Z,18.60
2023-10-18T21:36:37.557Z,19.80
2023-10-18T21:39:06.754Z,23.80
2023-10-18T21:41:35.385Z,26.10
2023-10-18T21:44:02.097Z,23.50
2023-10-18T21:46:28.687Z,25.20
2023-10-18T21:48:57.061Z,25.70
2023-10-18T21:51:24.378Z,27.20
2023-10-18T21:53:52.577Z,28.10
2023-10-18T21:56:19.384Z,29.10
2023-10-18T21:58:47.514Z,29.90
2023-10-18T22:01:33.835Z,28.70
2023-10-18T22:04:03.825Z,29.10
2023-10-18T22:06:30.425Z,28.40
2023-10-18T22:09:06.292Z,28.80
2023-10-18T22:11:35.655Z,27.10
2023-10-18T22:14:18.137Z,25.20
2023-10-18T22:16:56.976Z,25.80
2023-10-18T22:19:30.428Z,24.90
2023-10-18T22:21:57.477Z,24.90
2023-10-18T22:24:30.147Z,25.40
2023-10-18T22:26:57.724Z,22.60
2023-10-18T22:29:28.043Z,30.10
2023-10-18T22:32:00.018Z,27.80
2023-10-18T22:34:40.345Z,25.60
2023-10-18T22:37:06.868Z,25.20
2023-10-18T22:39:34.433Z,26.10
2023-10-18T22:42:08.985Z,26.50
2023-10-18T22:44:38.746Z,26.40
2023-10-18T22:47:07.399Z,27.00
2023-10-18T22:49:42.011Z,27.30
2023-10-18T22:52:23.333Z,22.40
2023-10-18T22:54:51.559Z,22.60
2023-10-18T22:57:35.822Z,24.00
2023-10-18T23:00:13.387Z,22.40
2023-10-18T23:02:43.508Z,22.70
2023-10-18T23:05:29.446Z,22.70
2023-10-18T23:07:57.983Z,20.80
2023-10-18T23:10:46.260Z,24.00
2023-10-18T23:13:32.972Z,21.70
2023-10-18T23:16:00.067Z,21.90
2023-10-18T23:18:33.768Z,24.50
2023-10-18T23:21:13.858Z,22.50
2023-10-18T23:23:55.206Z,22.60
2023-10-18T23:26:41.806Z,20.90
2023-10-18T23:29:15.062Z,23.40
2023-10-18T23:31:54.459Z,20.90
2023-10-18T23:34:24.083Z,21.80
2023-10-18T23:36:57.612Z,21.40
2023-10-18T23:39:28.653Z,24.80
2023-10-18T23:42:10.216Z,23.50
2023-10-18T23:44:55.172Z,20.30
2023-10-18T23:47:42.183Z,20.90
2023-10-18T23:50:29.884Z,21.80
2023-10-18T23:53:19.486Z,21.60
2023-10-18T23:55:55.239Z,22.20
2023-10-18T23:58:31.615Z,21.40
